Vicksburg, MS (39180)

3:57 PM CDT on August 03, 2015 (GMT -0500)
Savannah Hills | | Change Station
CLOSE
Current Station
Personal Weather Station
Location: Vicksburg, MS
Elevation: 250 ft
Nearby Weather Stations
Active Advisory: Flood Warning

Elev 250 ft 32.33 °N, 90.85 °W | Updated 8 minutes ago

Partly Cloudy
Partly Cloudy
102.6 °F
Feels Like 109 °F
N
4.7
Wind Variable Wind from NE

Today
High -- | Low -- °F
--% Chance of Precip.
Yesterday
High -- | Low -- °F
Precip. -- in
6:19 AM 7:59 PM
Waning Gibbous, 84% visible
Pressure 29.92 in
Visibility 10.0 miles
Clouds Scattered Clouds 7500 ft
Scattered Clouds 8500 ft
Heat Index 109 °F
Dew Point 68 °F
Humidity 33%
Rainfall 0.00 in
Snow Depth Not available.
UV 7 out of 12
Pollen 4.00 out of 12
Air Quality Not available.
Flu Activity Not available.
METAR KVKS 032035Z AUTO 34008KT 10SM SCT075 SCT085 36/20 A2992 RMK A01

More Conditions Fewer Conditions

Pressure 29.92 in
Visibility 10.0 miles
Clouds Scattered Clouds 7500 ft
Scattered Clouds 8500 ft
Heat Index 109 °F
Dew Point 68 °F
Humidity 33%
Rainfall 0.00 in
Snow Depth Not available.
UV 7 out of 12
Pollen 4.00 out of 12
Air Quality Not available.
Flu Activity Not available.
METAR KVKS 032035Z AUTO 34008KT 10SM SCT075 SCT085 36/20 A2992 RMK A01

More Conditions Fewer Conditions

10-Day Weather Forecast

×

Almanac

Astronomy

Aug. 03, 2015 Rise Set
Actual Time
Civil Twilight
Nautical Twilight
Astronomical Twilight
Moon
Length of Visible Light
Length of Day
Tomorrow will be .
, % of the Moon is Illuminated

Today's Extremes

State Highs State Lows

Community

WunderPhotos

Upload Photos

1,843,749 photos uploaded!

WunderBlogs® & News

Nearby

Air Quality

  Air Quality AQ Index Pollutant
Not available.

Snow Depth

Station Depth Elevation

Earthquake Activity

City Distance Mag. Time & Date
Minimum magnitude displayed is 2.5.

Coastal Water Temperatures

Place Temperature

Stations

Nearby Weather Stations

Station Location Temp. Windchill Dew Point Humidity Wind Precip. Elev Updated Type
                   
Flood Warning
Statement as of 11:08 AM CDT on August 03, 2015


The Flood Warning continues for
the Mississippi River at Vicksburg
* until Tuesday evening.
* At 10:00 am Monday the stage was 44.2 feet.
* Minor flooding is occurring and minor flooding is forecast.
* Flood stage is 43.0 feet.
* Forecast... the river will continue falling and will fall below
flood stage by tomorrow morning.



              Flood observed forecast 7 am crest
location stg stg day time Tue Wed Thu crest time date

Lower Mississippi River
Vicksburg 43 44.2 Mon 10 am 43.0 41.8 40.4 blo fs Tue





Lat... Lon 3193 9129 3227 9105 3277 9123 3278 9101
      3226 9086 3187 9114